createdAt,value
2023-03-04T00:00:17.145Z,40.700001
2023-03-04T00:01:25.441Z,40.700001
2023-03-04T00:02:33.973Z,32.299999
2023-03-04T00:03:42.296Z,32.299999
2023-03-04T00:04:50.611Z,32.299999
2023-03-04T00:05:59.167Z,27.6
2023-03-04T00:07:07.500Z,27.6
2023-03-04T00:08:15.810Z,27.6
2023-03-04T00:09:24.331Z,29.4
2023-03-04T00:10:32.680Z,29.4
2023-03-04T00:11:41.021Z,29.4
2023-03-04T00:12:49.553Z,25.700001
2023-03-04T00:13:57.863Z,25.700001
2023-03-04T00:15:06.194Z,25.700001
2023-03-04T00:16:14.751Z,28.9
2023-03-04T00:17:23.027Z,28.9
2023-03-04T00:18:31.341Z,28.9
2023-03-04T00:19:39.874Z,32.400002
2023-03-04T00:20:48.185Z,32.400002
2023-03-04T00:21:56.511Z,32.400002
2023-03-04T00:23:05.075Z,25.299999
2023-03-04T00:24:13.376Z,25.299999
2023-03-04T00:25:21.690Z,25.299999
2023-03-04T00:26:30.227Z,34.400002
2023-03-04T00:27:38.563Z,34.400002
2023-03-04T00:28:47.859Z,34.400002
2023-03-04T00:29:56.391Z,30.200001
2023-03-04T00:31:04.707Z,30.200001
2023-03-04T00:32:13.094Z,30.200001
2023-03-04T00:33:21.539Z,27
2023-03-04T00:34:31.766Z,27
2023-03-04T00:35:38.197Z,27
2023-03-04T00:36:46.738Z,28.200001
2023-03-04T00:37:55.053Z,28.200001
2023-03-04T00:39:03.383Z,28.200001
2023-03-04T00:40:11.914Z,36.299999
2023-03-04T00:41:20.215Z,36.299999
2023-03-04T00:42:28.545Z,36.299999
2023-03-04T00:43:37.058Z,28.200001
2023-03-04T00:44:45.376Z,28.200001
2023-03-04T00:45:53.725Z,28.200001
2023-03-04T00:47:02.226Z,24.700001
2023-03-04T00:48:10.575Z,24.700001
2023-03-04T00:49:18.881Z,24.700001
2023-03-04T00:50:27.400Z,31.4
2023-03-04T00:51:35.718Z,31.4
2023-03-04T00:52:44.049Z,31.4
2023-03-04T00:53:52.580Z,32.700001
2023-03-04T00:55:00.920Z,32.700001
2023-03-04T00:56:09.228Z,32.700001
2023-03-04T00:57:17.759Z,28.299999
2023-03-04T00:58:26.094Z,28.299999
2023-03-04T00:59:34.405Z,28.299999
2023-03-04T01:00:42.950Z,30.5
2023-03-04T01:01:51.252Z,30.5
2023-03-04T01:02:59.587Z,30.5
2023-03-04T01:04:08.104Z,32.599998
2023-03-04T01:05:16.425Z,32.599998
2023-03-04T01:06:24.728Z,32.599998
2023-03-04T01:07:34.038Z,26.299999
2023-03-04T01:08:41.582Z,26.299999
2023-03-04T01:09:49.895Z,26.299999
2023-03-04T01:10:58.450Z,22.6
2023-03-04T01:12:06.741Z,22.6
2023-03-04T01:13:15.098Z,22.6
2023-03-04T01:14:23.599Z,27.200001
2023-03-04T01:15:31.954Z,27.200001
2023-03-04T01:16:40.258Z,27.200001
2023-03-04T01:17:48.809Z,24.5
2023-03-04T01:18:57.124Z,24.5
2023-03-04T01:20:05.477Z,24.5
2023-03-04T01:21:14.003Z,28.4
2023-03-04T01:22:22.329Z,28.4
2023-03-04T01:23:30.634Z,28.4
2023-03-04T01:24:39.143Z,28.299999
2023-03-04T01:25:47.464Z,28.299999
2023-03-04T01:26:55.818Z,28.299999
2023-03-04T01:28:04.354Z,30.6
2023-03-04T01:29:12.661Z,30.6
2023-03-04T01:30:20.969Z,30.6
2023-03-04T01:31:29.490Z,31.799999
2023-03-04T01:32:37.883Z,31.799999
2023-03-04T01:33:46.155Z,31.799999
2023-03-04T01:34:54.682Z,32.5
2023-03-04T01:36:03.004Z,32.5
2023-03-04T01:37:11.315Z,32.5
2023-03-04T01:38:19.863Z,26.700001
2023-03-04T01:39:28.162Z,26.700001
2023-03-04T01:40:36.494Z,26.700001
2023-03-04T01:41:45.035Z,28.200001
2023-03-04T01:42:53.394Z,28.200001
2023-03-04T01:44:01.698Z,28.200001
2023-03-04T01:45:10.219Z,30.299999
2023-03-04T01:46:18.583Z,30.299999
2023-03-04T01:47:26.835Z,30.299999
2023-03-04T01:48:35.393Z,29.799999
2023-03-04T01:49:43.693Z,29.799999
2023-03-04T01:50:52.013Z,29.799999
2023-03-04T01:52:00.543Z,28.799999
2023-03-04T01:53:08.882Z,28.799999
2023-03-04T01:54:17.188Z,28.799999
2023-03-04T01:55:25.723Z,29.6
2023-03-04T01:56:34.027Z,29.6
2023-03-04T01:57:42.339Z,29.6
2023-03-04T01:58:50.904Z,28.9
2023-03-04T01:59:59.196Z,28.9
2023-03-04T02:01:07.509Z,28.9
2023-03-04T02:02:16.059Z,28.5
2023-03-04T02:03:24.395Z,28.5
2023-03-04T02:04:32.756Z,28.5
2023-03-04T02:05:41.227Z,28.799999
2023-03-04T02:06:49.538Z,28.799999
2023-03-04T02:07:57.883Z,28.799999
2023-03-04T02:09:06.410Z,26.4
2023-03-04T02:10:14.726Z,26.4
2023-03-04T02:11:23.039Z,26.4
2023-03-04T02:12:31.557Z,30.1
2023-03-04T02:13:39.885Z,30.1
2023-03-04T02:14:48.249Z,30.1
2023-03-04T02:15:56.780Z,30
2023-03-04T02:17:05.058Z,30
2023-03-04T02:18:13.413Z,30
2023-03-04T02:19:21.944Z,27
2023-03-04T02:20:30.252Z,27
2023-03-04T02:21:38.573Z,27
2023-03-04T02:22:47.097Z,29.799999
2023-03-04T02:23:55.434Z,29.799999
2023-03-04T02:25:03.748Z,29.799999
2023-03-04T02:26:12.260Z,27.5
2023-03-04T02:27:22.074Z,27.5
2023-03-04T02:28:28.908Z,27.5
2023-03-04T02:29:37.450Z,27.5
2023-03-04T02:30:45.819Z,27.5
2023-03-04T02:31:54.111Z,27.5
2023-03-04T02:33:02.621Z,33.400002
2023-03-04T02:34:10.945Z,33.400002
2023-03-04T02:35:19.437Z,33.400002
2023-03-04T02:36:27.864Z,33.400002
2023-03-04T02:37:36.187Z,33.400002
2023-03-04T02:38:44.527Z,33.400002
2023-03-04T02:39:53.036Z,25.799999
2023-03-04T02:41:01.359Z,25.799999
2023-03-04T02:42:09.681Z,25.799999
2023-03-04T02:43:18.205Z,26
2023-03-04T02:44:26.529Z,26
2023-03-04T02:45:34.844Z,26
2023-03-04T02:46:43.423Z,32.099998
2023-03-04T02:47:51.662Z,32.099998
2023-03-04T02:49:00.008Z,32.099998
2023-03-04T02:50:08.545Z,28.200001
2023-03-04T02:51:16.862Z,28.200001
2023-03-04T02:52:25.170Z,28.200001
2023-03-04T02:53:33.773Z,29.6
2023-03-04T02:54:42.108Z,29.6
2023-03-04T02:55:50.416Z,29.6
2023-03-04T02:56:58.948Z,32.400002
2023-03-04T02:58:07.247Z,32.400002
2023-03-04T02:59:15.576Z,32.400002
2023-03-04T03:00:24.114Z,34
2023-03-04T03:01:32.449Z,34
2023-03-04T03:02:40.788Z,34
2023-03-04T03:03:49.239Z,34.299999
2023-03-04T03:04:57.540Z,34.299999
2023-03-04T03:06:05.858Z,34.299999
2023-03-04T03:07:14.391Z,32.900002
2023-03-04T03:08:22.708Z,32.900002
2023-03-04T03:09:31.019Z,32.900002
2023-03-04T03:10:39.548Z,35.900002
2023-03-04T03:11:47.875Z,35.900002
2023-03-04T03:12:56.201Z,35.900002
2023-03-04T03:14:04.727Z,31.9
2023-03-04T03:15:13.049Z,31.9
2023-03-04T03:16:21.409Z,31.9
2023-03-04T03:17:29.896Z,29.1
2023-03-04T03:18:38.240Z,29.1
2023-03-04T03:19:46.532Z,29.1
2023-03-04T03:20:55.045Z,26.700001
2023-03-04T03:22:03.363Z,26.700001
2023-03-04T03:23:11.676Z,26.700001
2023-03-04T03:24:20.224Z,28.200001
2023-03-04T03:25:28.520Z,28.200001
2023-03-04T03:26:36.870Z,28.200001
2023-03-04T03:27:45.374Z,31.299999
2023-03-04T03:28:53.696Z,31.299999
2023-03-04T03:30:02.030Z,31.299999
2023-03-04T03:31:10.584Z,29.799999
2023-03-04T03:32:18.909Z,29.799999
2023-03-04T03:33:27.173Z,29.799999
2023-03-04T03:34:35.737Z,28.5
2023-03-04T03:35:44.065Z,28.5
2023-03-04T03:36:52.377Z,28.5
2023-03-04T03:38:00.893Z,28.6
2023-03-04T03:39:09.217Z,28.6
2023-03-04T03:40:17.578Z,28.6
2023-03-04T03:41:26.100Z,27.200001
2023-03-04T03:42:34.412Z,27.200001
2023-03-04T03:43:42.743Z,27.200001
2023-03-04T03:44:51.269Z,27.299999
2023-03-04T03:45:59.659Z,27.299999
2023-03-04T03:47:07.902Z,27.299999
2023-03-04T03:48:16.421Z,27.799999
2023-03-04T03:49:24.740Z,27.799999
2023-03-04T03:50:33.091Z,27.799999
2023-03-04T03:51:41.584Z,28.299999
2023-03-04T03:52:49.921Z,28.299999
2023-03-04T03:53:58.255Z,28.299999
2023-03-04T03:55:06.790Z,27.4
2023-03-04T03:56:15.085Z,27.4
2023-03-04T03:57:23.420Z,27.4
2023-03-04T03:58:31.950Z,27.9
2023-03-04T03:59:40.278Z,27.9
2023-03-04T04:00:48.602Z,27.9
2023-03-04T04:01:57.187Z,28.5
2023-03-04T04:03:05.536Z,28.5
2023-03-04T04:04:13.752Z,28.5
2023-03-04T04:05:22.275Z,28.1
2023-03-04T04:06:30.612Z,28.1
2023-03-04T04:07:38.895Z,28.1
2023-03-04T04:08:47.429Z,28.4
2023-03-04T04:09:55.757Z,28.4
2023-03-04T04:11:04.061Z,28.4
2023-03-04T04:12:12.579Z,27.4
2023-03-04T04:13:20.901Z,27.4
2023-03-04T04:14:29.217Z,27.4
2023-03-04T04:15:37.741Z,27.4
2023-03-04T04:16:46.125Z,27.4
2023-03-04T04:17:54.411Z,27.4
2023-03-04T04:19:02.959Z,31.6
2023-03-04T04:20:11.278Z,31.6
2023-03-04T04:21:19.601Z,31.6
2023-03-04T04:22:28.174Z,29.4
2023-03-04T04:23:36.456Z,29.4
2023-03-04T04:24:44.786Z,29.4
2023-03-04T04:25:53.318Z,27.5
2023-03-04T04:27:01.679Z,27.5
2023-03-04T04:28:09.981Z,27.5
2023-03-04T04:29:18.516Z,28
2023-03-04T04:30:26.902Z,28
2023-03-04T04:31:35.177Z,28
2023-03-04T04:32:43.687Z,27.200001
2023-03-04T04:33:52.014Z,27.200001
2023-03-04T04:35:00.332Z,27.200001
2023-03-04T04:36:08.857Z,28.4
2023-03-04T04:37:17.175Z,28.4
2023-03-04T04:38:25.542Z,28.4
2023-03-04T04:39:34.045Z,27.1
2023-03-04T04:40:42.365Z,27.1
2023-03-04T04:41:50.693Z,27.1
2023-03-04T04:42:59.217Z,29.299999
2023-03-04T04:44:07.552Z,29.299999
2023-03-04T04:45:15.872Z,29.299999
2023-03-04T04:46:24.433Z,28.200001
2023-03-04T04:47:32.713Z,28.200001
2023-03-04T04:48:41.012Z,28.200001
2023-03-04T04:49:49.536Z,29.9
2023-03-04T04:50:57.865Z,29.9
2023-03-04T04:52:06.190Z,29.9
2023-03-04T04:53:14.733Z,26
2023-03-04T04:54:23.071Z,26
2023-03-04T04:55:31.358Z,26
2023-03-04T04:56:39.904Z,27
2023-03-04T04:57:48.250Z,27
2023-03-04T04:58:56.562Z,27
2023-03-04T05:00:05.106Z,26.5
2023-03-04T05:01:13.424Z,26.5
2023-03-04T05:02:21.739Z,26.5
2023-03-04T05:03:30.330Z,24.799999
2023-03-04T05:04:38.576Z,24.799999
2023-03-04T05:05:46.950Z,24.799999
2023-03-04T05:06:55.462Z,25.700001
2023-03-04T05:08:03.772Z,25.700001
2023-03-04T05:09:12.100Z,25.700001
2023-03-04T05:10:20.656Z,25.5
2023-03-04T05:11:28.956Z,25.5
2023-03-04T05:12:37.285Z,25.5
2023-03-04T05:13:45.812Z,25.200001
2023-03-04T05:14:54.148Z,25.200001
2023-03-04T05:16:02.553Z,25.200001
2023-03-04T05:17:10.996Z,26.700001
2023-03-04T05:18:19.335Z,26.700001
2023-03-04T05:19:27.633Z,26.700001
2023-03-04T05:20:36.161Z,26.6
2023-03-04T05:21:44.517Z,26.6
2023-03-04T05:22:52.792Z,26.6
2023-03-04T05:24:01.325Z,25.6
2023-03-04T05:25:09.651Z,25.6
2023-03-04T05:26:17.988Z,25.6
2023-03-04T05:27:26.489Z,25.200001
2023-03-04T05:28:34.817Z,25.200001
2023-03-04T05:29:43.151Z,25.200001
2023-03-04T05:30:51.703Z,23.4
2023-03-04T05:32:00.056Z,23.4
2023-03-04T05:33:08.313Z,23.4
2023-03-04T05:34:16.853Z,22.799999
2023-03-04T05:35:27.230Z,22.799999
2023-03-04T05:36:33.477Z,22.799999
2023-03-04T05:37:42.003Z,23.6
2023-03-04T05:38:50.310Z,23.6
2023-03-04T05:39:58.647Z,23.6
2023-03-04T05:41:07.175Z,24.6
2023-03-04T05:42:15.531Z,24.6
2023-03-04T05:43:23.812Z,24.6
2023-03-04T05:44:32.352Z,24.200001
2023-03-04T05:45:40.659Z,24.200001
2023-03-04T05:46:49.059Z,24.200001
2023-03-04T05:47:57.509Z,22.200001
2023-03-04T05:49:05.843Z,22.200001
2023-03-04T05:50:14.154Z,22.200001
2023-03-04T05:51:22.697Z,23.700001
2023-03-04T05:52:30.993Z,23.700001
2023-03-04T05:53:39.350Z,23.700001
2023-03-04T05:54:47.857Z,23.700001
2023-03-04T05:55:56.172Z,23.700001
2023-03-04T05:57:04.497Z,23.700001
2023-03-04T05:58:13.051Z,21.299999
2023-03-04T05:59:21.371Z,21.299999
2023-03-04T06:00:29.679Z,21.299999
2023-03-04T06:01:38.205Z,24.9
2023-03-04T06:02:46.548Z,24.9
2023-03-04T06:03:54.933Z,24.9
2023-03-04T06:05:03.384Z,22.799999
2023-03-04T06:06:11.720Z,22.799999
2023-03-04T06:07:20.008Z,22.799999
2023-03-04T06:08:28.555Z,22.9
2023-03-04T06:09:36.898Z,22.9
2023-03-04T06:10:45.198Z,22.9
2023-03-04T06:11:53.721Z,27.799999
2023-03-04T06:13:02.053Z,27.799999
2023-03-04T06:14:10.435Z,27.799999
2023-03-04T06:15:18.898Z,23.299999
2023-03-04T06:16:27.287Z,23.299999
2023-03-04T06:17:35.909Z,23.299999
2023-03-04T06:18:44.450Z,22.5
2023-03-04T06:19:52.787Z,22.5
2023-03-04T06:21:01.123Z,22.5
2023-03-04T06:22:09.638Z,24
2023-03-04T06:23:17.946Z,24
2023-03-04T06:24:26.273Z,24
2023-03-04T06:25:34.824Z,23
2023-03-04T06:26:43.153Z,23
2023-03-04T06:27:51.948Z,23
2023-03-04T06:28:59.983Z,24.4
2023-03-04T06:30:08.334Z,24.4
2023-03-04T06:31:16.741Z,24.4
2023-03-04T06:32:25.234Z,23.200001
2023-03-04T06:33:33.476Z,23.200001
2023-03-04T06:34:41.835Z,23.200001
2023-03-04T06:35:50.398Z,22.6
2023-03-04T06:36:58.685Z,22.6
2023-03-04T06:38:07.017Z,22.6
2023-03-04T06:39:15.546Z,24.299999
2023-03-04T06:40:23.939Z,24.299999
2023-03-04T06:41:32.265Z,24.299999
2023-03-04T06:42:40.791Z,24.1
2023-03-04T06:43:49.099Z,24.1
2023-03-04T06:44:57.430Z,24.1
2023-03-04T06:46:05.992Z,21.799999
2023-03-04T06:47:14.278Z,21.799999
2023-03-04T06:48:22.609Z,21.799999
2023-03-04T06:49:31.136Z,21.799999
2023-03-04T06:50:39.467Z,21.799999
2023-03-04T06:51:47.855Z,21.799999
2023-03-04T06:52:56.385Z,19.799999
2023-03-04T06:54:04.727Z,19.799999
2023-03-04T06:55:13.045Z,19.799999
2023-03-04T06:56:21.578Z,21.299999
2023-03-04T06:57:29.895Z,21.299999
2023-03-04T06:58:39.633Z,21.299999
2023-03-04T06:59:51.021Z,21.200001
2023-03-04T07:00:59.375Z,21.200001
2023-03-04T07:02:07.683Z,21.200001
2023-03-04T07:03:16.190Z,27.6
2023-03-04T07:04:24.565Z,27.6
2023-03-04T07:05:32.840Z,27.6
2023-03-04T07:06:41.357Z,44.599998
2023-03-04T07:07:49.695Z,44.599998
2023-03-04T07:08:57.995Z,44.599998
2023-03-04T07:10:06.521Z,47.400002
2023-03-04T07:11:14.827Z,47.400002
2023-03-04T07:12:23.141Z,47.400002
2023-03-04T07:13:31.692Z,31.5
2023-03-04T07:14:39.994Z,31.5
2023-03-04T07:15:48.304Z,31.5
2023-03-04T07:16:56.854Z,29.4
2023-03-04T07:18:05.210Z,29.4
2023-03-04T07:19:13.505Z,29.4
2023-03-04T07:20:22.045Z,51
2023-03-04T07:21:30.352Z,51
2023-03-04T07:22:38.734Z,51
2023-03-04T07:23:47.259Z,32.5
2023-03-04T07:24:55.613Z,32.5
2023-03-04T07:26:03.908Z,32.5
2023-03-04T07:27:12.423Z,25.6
2023-03-04T07:28:20.714Z,25.6
2023-03-04T07:29:29.037Z,25.6
2023-03-04T07:30:37.583Z,24.200001
2023-03-04T07:31:45.931Z,24.200001
2023-03-04T07:32:54.237Z,24.200001
2023-03-04T07:34:02.791Z,21.200001
2023-03-04T07:35:11.097Z,21.200001
2023-03-04T07:36:19.419Z,21.200001
2023-03-04T07:37:27.952Z,24.4
2023-03-04T07:38:36.273Z,24.4
2023-03-04T07:39:44.577Z,24.4
2023-03-04T07:40:53.127Z,24.799999
2023-03-04T07:42:01.432Z,24.799999
2023-03-04T07:43:09.764Z,24.799999
2023-03-04T07:44:18.289Z,22.299999
2023-03-04T07:45:26.607Z,22.299999
2023-03-04T07:46:34.910Z,22.299999
2023-03-04T07:47:43.426Z,19.9
2023-03-04T07:48:51.748Z,19.9
2023-03-04T07:50:00.109Z,19.9
2023-03-04T07:51:08.601Z,21.200001
2023-03-04T07:52:16.915Z,21.200001
2023-03-04T07:53:25.223Z,21.200001
2023-03-04T07:54:33.760Z,20.9
2023-03-04T07:55:42.091Z,20.9
2023-03-04T07:56:50.474Z,20.9
2023-03-04T07:57:58.988Z,27.700001
2023-03-04T07:59:07.356Z,27.700001
2023-03-04T08:00:15.656Z,27.700001
2023-03-04T08:01:24.179Z,20.4
2023-03-04T08:02:32.531Z,20.4
2023-03-04T08:03:40.822Z,20.4
2023-03-04T08:04:49.354Z,23.299999
2023-03-04T08:05:57.790Z,23.299999
2023-03-04T08:07:06.082Z,23.299999
2023-03-04T08:08:16.398Z,20.1
2023-03-04T08:09:22.948Z,20.1
2023-03-04T08:10:31.257Z,20.1
2023-03-04T08:11:39.770Z,21
2023-03-04T08:12:48.099Z,21
2023-03-04T08:13:56.427Z,21
2023-03-04T08:15:04.974Z,24.9
2023-03-04T08:16:13.383Z,24.9
2023-03-04T08:17:21.636Z,24.9
2023-03-04T08:18:30.183Z,20.1
2023-03-04T08:19:38.538Z,20.1
2023-03-04T08:20:46.855Z,20.1
2023-03-04T08:21:55.411Z,16.799999
2023-03-04T08:23:03.711Z,16.799999
2023-03-04T08:24:12.023Z,16.799999
2023-03-04T08:25:20.559Z,19.6
2023-03-04T08:26:28.877Z,19.6
2023-03-04T08:27:37.184Z,19.6
2023-03-04T08:28:45.809Z,17
2023-03-04T08:29:54.043Z,17
2023-03-04T08:31:02.395Z,17
2023-03-04T08:32:10.987Z,18.200001
2023-03-04T08:33:19.186Z,18.200001
2023-03-04T08:34:27.542Z,18.200001
2023-03-04T08:35:36.090Z,20
2023-03-04T08:36:44.403Z,20
2023-03-04T08:37:52.845Z,20
2023-03-04T08:39:01.344Z,16.6
2023-03-04T08:40:09.677Z,16.6
2023-03-04T08:41:17.997Z,16.6
2023-03-04T08:42:26.535Z,14.8
2023-03-04T08:43:34.839Z,14.8
2023-03-04T08:44:43.154Z,14.8
2023-03-04T08:45:51.741Z,15.3
2023-03-04T08:47:00.006Z,15.3
2023-03-04T08:48:08.352Z,15.3
2023-03-04T08:49:16.867Z,14.3
2023-03-04T08:50:25.185Z,14.3
2023-03-04T08:51:33.492Z,14.3
2023-03-04T08:52:42.011Z,17.299999
2023-03-04T08:53:50.344Z,17.299999
2023-03-04T08:54:58.689Z,17.299999
2023-03-04T08:56:07.303Z,13.4
2023-03-04T08:57:15.574Z,13.4
2023-03-04T08:58:23.939Z,13.4
2023-03-04T08:59:32.462Z,15.8
2023-03-04T09:00:40.789Z,15.8
2023-03-04T09:01:49.132Z,15.8
2023-03-04T09:02:57.613Z,14
2023-03-04T09:04:05.931Z,14
2023-03-04T09:05:14.231Z,14
2023-03-04T09:06:22.757Z,15.8
2023-03-04T09:07:31.077Z,15.8
2023-03-04T09:08:39.376Z,15.8
2023-03-04T09:09:47.952Z,13.4
2023-03-04T09:10:56.315Z,13.4
2023-03-04T09:12:04.646Z,13.4
2023-03-04T09:13:13.240Z,15
2023-03-04T09:14:21.506Z,15
2023-03-04T09:15:29.890Z,15
2023-03-04T09:16:38.430Z,13.2
2023-03-04T09:17:46.772Z,13.2
2023-03-04T09:18:55.161Z,13.2
2023-03-04T09:20:04.578Z,13
2023-03-04T09:21:12.041Z,13
2023-03-04T09:22:20.340Z,13
2023-03-04T09:23:28.873Z,11.9
2023-03-04T09:24:37.198Z,11.9
2023-03-04T09:25:45.551Z,11.9
2023-03-04T09:26:54.049Z,13.3
2023-03-04T09:28:02.374Z,13.3
2023-03-04T09:29:10.739Z,13.3
2023-03-04T09:30:19.291Z,13.2
2023-03-04T09:31:27.664Z,13.2
2023-03-04T09:32:35.953Z,13.2
2023-03-04T09:33:44.464Z,16.4
2023-03-04T09:34:52.787Z,16.4
2023-03-04T09:36:01.321Z,16.4
2023-03-04T09:37:09.685Z,12.5
2023-03-04T09:38:18.007Z,12.5
2023-03-04T09:39:26.338Z,12.5
2023-03-04T09:40:34.893Z,14.9
2023-03-04T09:41:43.233Z,14.9
2023-03-04T09:42:51.539Z,14.9
2023-03-04T09:44:00.104Z,13.6
2023-03-04T09:45:08.399Z,13.6
2023-03-04T09:46:16.738Z,13.6
2023-03-04T09:47:25.258Z,8.8
2023-03-04T09:48:33.564Z,8.8
2023-03-04T09:49:41.894Z,8.8
2023-03-04T09:50:50.425Z,11.4
2023-03-04T09:51:58.750Z,11.4
2023-03-04T09:53:07.045Z,11.4
2023-03-04T09:54:15.616Z,8.5
2023-03-04T09:55:23.934Z,8.5
2023-03-04T09:56:32.286Z,8.5
2023-03-04T09:57:40.839Z,10
2023-03-04T09:58:49.173Z,10
2023-03-04T09:59:57.494Z,10
2023-03-04T10:01:06.044Z,10.5
2023-03-04T10:02:14.376Z,10.5
2023-03-04T10:03:22.701Z,10.5
2023-03-04T10:04:31.246Z,12
2023-03-04T10:05:39.580Z,12
2023-03-04T10:06:47.868Z,12
2023-03-04T10:07:56.438Z,11.1
2023-03-04T10:09:04.775Z,11.1
2023-03-04T10:10:13.110Z,11.1
2023-03-04T10:11:21.689Z,9.2
2023-03-04T10:12:29.988Z,9.2
2023-03-04T10:13:38.319Z,9.2
2023-03-04T10:14:46.860Z,9.7
2023-03-04T10:15:55.251Z,9.7
2023-03-04T10:17:03.537Z,9.7
2023-03-04T10:18:12.066Z,10.9
2023-03-04T10:19:20.384Z,10.9
2023-03-04T10:20:28.703Z,10.9
2023-03-04T10:21:37.265Z,10.3
2023-03-04T10:22:45.558Z,10.3
2023-03-04T10:23:53.868Z,10.3
2023-03-04T10:25:02.381Z,10.2
2023-03-04T10:26:10.735Z,10.2
2023-03-04T10:27:19.053Z,10.2
2023-03-04T10:28:27.621Z,8.4
2023-03-04T10:29:35.937Z,8.4
2023-03-04T10:30:44.211Z,8.4
2023-03-04T10:31:52.788Z,9.8
2023-03-04T10:33:01.063Z,9.8
2023-03-04T10:34:09.377Z,9.8
2023-03-04T10:35:20.138Z,7.4
2023-03-04T10:36:26.221Z,7.4
2023-03-04T10:37:34.541Z,7.4
2023-03-04T10:38:43.116Z,8.2
2023-03-04T10:39:51.470Z,8.2
2023-03-04T10:40:59.778Z,8.2
2023-03-04T10:42:08.466Z,8.9
2023-03-04T10:43:16.622Z,8.9
2023-03-04T10:44:24.928Z,8.9
2023-03-04T10:45:33.504Z,7.2
2023-03-04T10:46:41.819Z,7.2
2023-03-04T10:47:50.157Z,7.2
2023-03-04T10:48:58.684Z,8.3
2023-03-04T10:50:07.013Z,8.3
2023-03-04T10:51:15.336Z,8.3
2023-03-04T10:52:23.860Z,7.8
2023-03-04T10:53:32.180Z,7.8
2023-03-04T10:54:40.491Z,7.8
2023-03-04T10:55:49.032Z,8.4
2023-03-04T10:56:57.360Z,8.4
2023-03-04T10:58:05.690Z,8.4
2023-03-04T10:59:14.192Z,7.1
2023-03-04T11:00:22.510Z,7.1
2023-03-04T11:01:30.948Z,7.1
2023-03-04T11:02:39.353Z,5.8
2023-03-04T11:03:47.765Z,5.8
2023-03-04T11:04:56.015Z,5.8
2023-03-04T11:06:04.588Z,8.9
2023-03-04T11:07:12.920Z,8.9
2023-03-04T11:08:21.258Z,8.9
2023-03-04T11:09:29.781Z,7
2023-03-04T11:10:38.143Z,7
2023-03-04T11:11:46.480Z,7
2023-03-04T11:12:55.046Z,6.5
2023-03-04T11:14:03.383Z,6.5
2023-03-04T11:15:11.696Z,6.5
2023-03-04T11:16:20.342Z,9.2
2023-03-04T11:17:28.587Z,9.2
2023-03-04T11:18:36.875Z,9.2
2023-03-04T11:19:45.412Z,5.8
2023-03-04T11:20:53.744Z,5.8
2023-03-04T11:22:02.073Z,5.8
2023-03-04T11:23:10.634Z,8.4
2023-03-04T11:24:28.987Z,8.4
2023-03-04T11:25:27.287Z,8.4
2023-03-04T11:26:35.816Z,8
2023-03-04T11:27:44.152Z,8
2023-03-04T11:28:52.502Z,8
2023-03-04T11:30:01.025Z,7
2023-03-04T11:31:09.349Z,7
2023-03-04T11:32:17.701Z,7
2023-03-04T11:33:26.191Z,6
2023-03-04T11:34:34.477Z,6
2023-03-04T11:35:42.850Z,6
2023-03-04T11:36:51.323Z,8
2023-03-04T11:37:59.659Z,8
2023-03-04T11:39:07.956Z,8
2023-03-04T11:40:16.475Z,5.9
2023-03-04T11:41:24.799Z,5.9
2023-03-04T11:42:33.112Z,5.9
2023-03-04T11:43:41.645Z,6.5
2023-03-04T11:44:49.969Z,6.5
2023-03-04T11:45:58.305Z,6.5
2023-03-04T11:47:06.810Z,6.5
2023-03-04T11:48:15.126Z,6.5
2023-03-04T11:49:23.460Z,6.5
2023-03-04T11:50:31.951Z,5.2
2023-03-04T11:51:40.261Z,5.2
2023-03-04T11:52:48.582Z,5.2
2023-03-04T11:53:57.086Z,7.3
2023-03-04T11:55:05.395Z,7.3
2023-03-04T11:56:13.713Z,7.3
2023-03-04T11:57:22.254Z,7
2023-03-04T11:58:30.550Z,7
2023-03-04T11:59:38.859Z,7
2023-03-04T12:00:47.382Z,5.4
2023-03-04T12:01:55.713Z,5.4
2023-03-04T12:03:04.014Z,5.4
2023-03-04T12:04:12.630Z,4.9
2023-03-04T12:05:20.956Z,4.9
2023-03-04T12:06:29.145Z,4.9
2023-03-04T12:07:37.688Z,4.7
2023-03-04T12:08:45.987Z,4.7
2023-03-04T12:09:54.286Z,4.7
2023-03-04T12:11:02.817Z,6.1
2023-03-04T12:12:11.139Z,6.1
2023-03-04T12:13:19.488Z,6.1
2023-03-04T12:14:27.970Z,6.4
2023-03-04T12:15:36.318Z,6.4
2023-03-04T12:16:44.595Z,6.4
2023-03-04T12:17:53.117Z,4.5
2023-03-04T12:19:01.415Z,4.5
2023-03-04T12:20:09.715Z,4.5
2023-03-04T12:21:18.335Z,3.9
2023-03-04T12:22:26.580Z,3.9
2023-03-04T12:23:34.900Z,3.9
2023-03-04T12:24:43.416Z,4.2
2023-03-04T12:25:51.725Z,4.2
2023-03-04T12:27:00.048Z,4.2
2023-03-04T12:28:08.573Z,4.6
2023-03-04T12:29:16.900Z,4.6
2023-03-04T12:30:25.199Z,4.6
2023-03-04T12:31:33.796Z,8
2023-03-04T12:32:42.032Z,8
2023-03-04T12:33:50.386Z,8
2023-03-04T12:34:58.864Z,16.4
2023-03-04T12:36:07.167Z,16.4
2023-03-04T12:37:15.803Z,16.4
2023-03-04T12:38:24.009Z,8.9
2023-03-04T12:39:32.316Z,8.9
2023-03-04T12:40:40.634Z,8.9
2023-03-04T12:41:49.179Z,4.2
2023-03-04T12:42:57.503Z,4.2
2023-03-04T12:44:05.816Z,4.2
2023-03-04T12:45:14.341Z,4.5
2023-03-04T12:46:22.708Z,4.5
2023-03-04T12:47:30.990Z,4.5
2023-03-04T12:48:39.533Z,2.5
2023-03-04T12:49:47.860Z,2.5
2023-03-04T12:50:56.150Z,2.5
2023-03-04T12:52:04.693Z,3.9
2023-03-04T12:53:13.048Z,3.9
2023-03-04T12:54:21.317Z,3.9
2023-03-04T12:55:29.839Z,4.7
2023-03-04T12:56:38.163Z,4.7
2023-03-04T12:57:46.479Z,4.7
2023-03-04T12:58:55.006Z,6.1
2023-03-04T13:00:03.347Z,6.1
2023-03-04T13:01:11.665Z,6.1
2023-03-04T13:02:20.238Z,4.6
2023-03-04T13:03:28.676Z,4.6
2023-03-04T13:04:36.881Z,4.6
2023-03-04T13:05:45.409Z,2.7
2023-03-04T13:06:53.748Z,2.7
2023-03-04T13:08:02.074Z,2.7
2023-03-04T13:09:10.599Z,4
2023-03-04T13:10:18.895Z,4
2023-03-04T13:11:27.229Z,4
2023-03-04T13:12:35.774Z,3.7
2023-03-04T13:13:44.090Z,3.7
2023-03-04T13:14:52.471Z,3.7
2023-03-04T13:16:00.994Z,4.8
2023-03-04T13:17:09.297Z,4.8
2023-03-04T13:18:17.613Z,4.8
2023-03-04T13:19:26.145Z,6.6
2023-03-04T13:20:34.494Z,6.6
2023-03-04T13:21:42.825Z,6.6
2023-03-04T13:22:51.369Z,5.7
2023-03-04T13:23:59.683Z,5.7
2023-03-04T13:25:08.038Z,5.7
2023-03-04T13:26:16.544Z,3.3
2023-03-04T13:27:24.884Z,3.3
2023-03-04T13:28:33.229Z,3.3
2023-03-04T13:29:41.716Z,2.4
2023-03-04T13:30:50.043Z,2.4
2023-03-04T13:31:58.411Z,2.4
2023-03-04T13:33:06.925Z,3.8
2023-03-04T13:34:15.248Z,3.8
2023-03-04T13:35:23.604Z,3.8
2023-03-04T13:36:32.092Z,3.9
2023-03-04T13:37:40.433Z,3.9
2023-03-04T13:38:48.784Z,3.9
2023-03-04T13:39:57.291Z,3.8
2023-03-04T13:41:05.632Z,3.8
2023-03-04T13:42:13.931Z,3.8
2023-03-04T13:43:22.500Z,6
2023-03-04T13:44:30.798Z,6
2023-03-04T13:45:39.131Z,6
2023-03-04T13:46:47.729Z,38.299999
2023-03-04T13:47:55.969Z,38.299999
2023-03-04T13:49:04.302Z,38.299999
2023-03-04T13:50:12.816Z,6.3
2023-03-04T13:51:29.171Z,6.3
2023-03-04T13:52:29.465Z,6.3
2023-03-04T13:53:37.992Z,4.7
2023-03-04T13:54:46.473Z,4.7
2023-03-04T13:55:54.704Z,4.7
2023-03-04T13:57:03.253Z,4.4
2023-03-04T13:58:11.580Z,4.4
2023-03-04T13:59:19.893Z,4.4
2023-03-04T14:00:28.625Z,4.5
2023-03-04T14:01:36.763Z,4.5
2023-03-04T14:02:45.084Z,4.5
2023-03-04T14:03:53.637Z,4.9
2023-03-04T14:05:01.964Z,4.9
2023-03-04T14:06:10.255Z,4.9
2023-03-04T14:07:18.784Z,5.7
2023-03-04T14:08:27.118Z,5.7
2023-03-04T14:09:35.439Z,5.7
2023-03-04T14:10:43.958Z,3.8
2023-03-04T14:11:52.295Z,3.8
2023-03-04T14:13:00.623Z,3.8
2023-03-04T14:14:09.126Z,4.2
2023-03-04T14:15:17.449Z,4.2
2023-03-04T14:16:25.806Z,4.2
2023-03-04T14:17:34.291Z,4.2
2023-03-04T14:18:42.635Z,4.2
2023-03-04T14:19:53.004Z,4.2
2023-03-04T14:20:59.498Z,2
2023-03-04T14:22:07.814Z,2
2023-03-04T14:23:16.127Z,2
2023-03-04T14:24:24.668Z,3.1
2023-03-04T14:25:34.925Z,3.1
2023-03-04T14:26:41.293Z,3.1
2023-03-04T14:27:49.829Z,4.3
2023-03-04T14:28:58.187Z,4.3
2023-03-04T14:30:06.478Z,4.3
2023-03-04T14:31:15.020Z,3.2
2023-03-04T15:03:57.065Z,0
2023-03-04T15:05:14.341Z,0
2023-03-04T15:06:13.595Z,0
2023-03-04T15:07:22.142Z,27.200001
2023-03-04T15:08:30.512Z,27.200001
2023-03-04T15:09:38.917Z,27.200001
2023-03-04T15:10:47.472Z,4.8
2023-03-04T15:11:55.890Z,4.8